sensor_id;sensor_type;location;lat;lon;timestamp;pressure;altitude;pressure_sealevel;temperature;humidity
25944;BME280;13742;49.306;8.636;2023-09-19T00:00:24;100009.42;;;18.82;49.93
25944;BME280;13742;49.306;8.636;2023-09-19T00:01:22;100011.89;;;18.82;49.93
25944;BME280;13742;49.306;8.636;2023-09-19T00:02:22;100009.11;;;18.81;49.93
25944;BME280;13742;49.306;8.636;2023-09-19T00:03:23;100014.53;;;18.81;49.93
25944;BME280;13742;49.306;8.636;2023-09-19T00:04:30;100015.06;;;18.81;49.93
25944;BME280;13742;49.306;8.636;2023-09-19T00:05:23;100016.57;;;18.81;49.93
25944;BME280;13742;49.306;8.636;2023-09-19T00:06:22;100019.66;;;18.81;49.93
25944;BME280;13742;49.306;8.636;2023-09-19T00:07:22;100017.95;;;18.82;49.93
25944;BME280;13742;49.306;8.636;2023-09-19T00:08:24;100020.30;;;18.83;49.93
25944;BME280;13742;49.306;8.636;2023-09-19T00:09:22;100019.92;;;18.82;49.93
25944;BME280;13742;49.306;8.636;2023-09-19T00:10:25;100020.78;;;18.81;49.93
25944;BME280;13742;49.306;8.636;2023-09-19T00:11:26;100025.06;;;18.80;49.93
25944;BME280;13742;49.306;8.636;2023-09-19T00:12:22;100023.13;;;18.81;49.93
25944;BME280;13742;49.306;8.636;2023-09-19T00:13:22;100019.17;;;18.80;49.93
25944;BME280;13742;49.306;8.636;2023-09-19T00:14:24;100019.73;;;18.79;49.93
25944;BME280;13742;49.306;8.636;2023-09-19T00:15:22;100017.30;;;18.79;49.93
25944;BME280;13742;49.306;8.636;2023-09-19T00:16:22;100020.17;;;18.79;49.93
25944;BME280;13742;49.306;8.636;2023-09-19T00:17:22;100019.09;;;18.78;49.93
25944;BME280;13742;49.306;8.636;2023-09-19T00:18:23;100019.59;;;18.78;49.93
25944;BME280;13742;49.306;8.636;2023-09-19T00:19:23;100018.21;;;18.76;49.93
25944;BME280;13742;49.306;8.636;2023-09-19T00:20:23;100018.38;;;18.77;49.93
25944;BME280;13742;49.306;8.636;2023-09-19T00:21:22;100018.21;;;18.76;49.93
25944;BME280;13742;49.306;8.636;2023-09-19T00:22:22;100021.73;;;18.76;49.93
25944;BME280;13742;49.306;8.636;2023-09-19T00:23:22;100022.17;;;18.77;49.93
25944;BME280;13742;49.306;8.636;2023-09-19T00:24:23;100025.67;;;18.77;49.93
25944;BME280;13742;49.306;8.636;2023-09-19T00:25:22;100028.02;;;18.77;49.93
25944;BME280;13742;49.306;8.636;2023-09-19T00:26:22;100032.14;;;18.78;49.93
25944;BME280;13742;49.306;8.636;2023-09-19T00:27:22;100029.19;;;18.77;49.93
25944;BME280;13742;49.306;8.636;2023-09-19T00:28:22;100026.68;;;18.77;49.93
25944;BME280;13742;49.306;8.636;2023-09-19T00:29:23;100029.52;;;18.77;49.93
25944;BME280;13742;49.306;8.636;2023-09-19T00:30:24;100025.67;;;18.77;49.93
25944;BME280;13742;49.306;8.636;2023-09-19T00:31:25;100027.55;;;18.78;49.93
25944;BME280;13742;49.306;8.636;2023-09-19T00:32:22;100030.53;;;18.77;49.93
25944;BME280;13742;49.306;8.636;2023-09-19T00:33:22;100028.96;;;18.77;49.93
25944;BME280;13742;49.306;8.636;2023-09-19T00:34:22;100029.06;;;18.78;49.93
25944;BME280;13742;49.306;8.636;2023-09-19T00:35:25;100029.19;;;18.77;49.93
25944;BME280;13742;49.306;8.636;2023-09-19T00:36:22;100029.90;;;18.78;49.93
25944;BME280;13742;49.306;8.636;2023-09-19T00:37:22;100034.02;;;18.78;49.93
25944;BME280;13742;49.306;8.636;2023-09-19T00:38:24;100029.36;;;18.77;49.93
25944;BME280;13742;49.306;8.636;2023-09-19T00:39:22;100031.20;;;18.77;49.93
25944;BME280;13742;49.306;8.636;2023-09-19T00:40:22;100033.44;;;18.76;49.93
25944;BME280;13742;49.306;8.636;2023-09-19T00:41:22;100036.91;;;18.76;49.93
25944;BME280;13742;49.306;8.636;2023-09-19T00:42:22;100039.02;;;18.76;49.93
25944;BME280;13742;49.306;8.636;2023-09-19T00:43:24;100038.85;;;18.76;49.93
25944;BME280;13742;49.306;8.636;2023-09-19T00:44:23;100039.48;;;18.75;49.93
25944;BME280;13742;49.306;8.636;2023-09-19T00:45:22;100041.09;;;18.75;49.93
25944;BME280;13742;49.306;8.636;2023-09-19T00:46:22;100042.89;;;18.74;49.93
25944;BME280;13742;49.306;8.636;2023-09-19T00:47:22;100043.06;;;18.75;49.93
25944;BME280;13742;49.306;8.636;2023-09-19T00:48:22;100046.70;;;18.73;49.93
25944;BME280;13742;49.306;8.636;2023-09-19T00:49:22;100053.45;;;18.73;49.93
25944;BME280;13742;49.306;8.636;2023-09-19T00:50:23;100052.95;;;18.73;49.93
25944;BME280;13742;49.306;8.636;2023-09-19T00:51:22;100053.45;;;18.73;49.93
25944;BME280;13742;49.306;8.636;2023-09-19T00:52:23;100053.81;;;18.72;49.93
25944;BME280;13742;49.306;8.636;2023-09-19T00:53:23;100052.13;;;18.71;49.93
25944;BME280;13742;49.306;8.636;2023-09-19T00:54:22;100057.38;;;18.71;49.93
25944;BME280;13742;49.306;8.636;2023-09-19T00:55:22;100053.70;;;18.67;49.93
25944;BME280;13742;49.306;8.636;2023-09-19T00:56:23;100055.27;;;18.66;49.93
25944;BME280;13742;49.306;8.636;2023-09-19T00:57:22;100056.17;;;18.66;49.93
25944;BME280;13742;49.306;8.636;2023-09-19T00:58:22;100053.83;;;18.66;49.93
25944;BME280;13742;49.306;8.636;2023-09-19T00:59:22;100056.91;;;18.65;49.93
25944;BME280;13742;49.306;8.636;2023-09-19T01:00:23;100056.53;;;18.64;49.93
25944;BME280;13742;49.306;8.636;2023-09-19T01:01:22;100059.43;;;18.63;49.93
25944;BME280;13742;49.306;8.636;2023-09-19T01:02:22;100059.28;;;18.62;49.93
25944;BME280;13742;49.306;8.636;2023-09-19T01:03:22;100062.05;;;18.60;49.93
25944;BME280;13742;49.306;8.636;2023-09-19T01:04:22;100060.45;;;18.58;49.93
25944;BME280;13742;49.306;8.636;2023-09-19T01:05:23;100056.19;;;18.56;49.93
25944;BME280;13742;49.306;8.636;2023-09-19T01:06:22;100061.17;;;18.55;49.93
25944;BME280;13742;49.306;8.636;2023-09-19T01:07:22;100060.95;;;18.54;49.93
25944;BME280;13742;49.306;8.636;2023-09-19T01:08:22;100064.03;;;18.54;49.93
25944;BME280;13742;49.306;8.636;2023-09-19T01:09:22;100063.26;;;18.53;49.93
25944;BME280;13742;49.306;8.636;2023-09-19T01:10:22;100066.09;;;18.53;49.93
25944;BME280;13742;49.306;8.636;2023-09-19T01:12:22;100068.00;;;18.52;49.93
25944;BME280;13742;49.306;8.636;2023-09-19T01:13:28;100068.47;;;18.52;49.93
25944;BME280;13742;49.306;8.636;2023-09-19T01:14:29;100063.84;;;18.51;49.93
25944;BME280;13742;49.306;8.636;2023-09-19T01:17:27;100074.31;;;18.51;49.93
25944;BME280;13742;49.306;8.636;2023-09-19T01:19:26;100075.73;;;18.45;49.93
25944;BME280;13742;49.306;8.636;2023-09-19T01:20:27;100069.03;;;18.45;49.93
25944;BME280;13742;49.306;8.636;2023-09-19T01:21:30;100069.70;;;18.45;49.93
25944;BME280;13742;49.306;8.636;2023-09-19T01:24:26;100066.17;;;18.43;49.93
25944;BME280;13742;49.306;8.636;2023-09-19T01:26:30;100059.59;;;18.39;49.93
25944;BME280;13742;49.306;8.636;2023-09-19T01:28:29;100068.80;;;18.37;49.93
25944;BME280;13742;49.306;8.636;2023-09-19T01:30:24;100071.14;;;18.37;49.93
25944;BME280;13742;49.306;8.636;2023-09-19T01:31:24;100067.48;;;18.32;49.93
25944;BME280;13742;49.306;8.636;2023-09-19T01:32:22;100065.52;;;18.29;49.93
25944;BME280;13742;49.306;8.636;2023-09-19T01:33:23;100066.60;;;18.31;49.93
25944;BME280;13742;49.306;8.636;2023-09-19T01:34:22;100067.69;;;18.33;49.93
25944;BME280;13742;49.306;8.636;2023-09-19T01:35:22;100069.30;;;18.34;49.93
25944;BME280;13742;49.306;8.636;2023-09-19T01:36:23;100070.30;;;18.34;49.93
25944;BME280;13742;49.306;8.636;2023-09-19T01:37:25;100070.63;;;18.35;49.93
25944;BME280;13742;49.306;8.636;2023-09-19T01:38:22;100072.63;;;18.35;49.93
25944;BME280;13742;49.306;8.636;2023-09-19T01:39:22;100066.78;;;18.35;49.93
25944;BME280;13742;49.306;8.636;2023-09-19T01:40:22;100066.42;;;18.33;49.93
25944;BME280;13742;49.306;8.636;2023-09-19T01:41:26;100065.08;;;18.28;49.93
25944;BME280;13742;49.306;8.636;2023-09-19T01:43:25;100063.50;;;18.28;49.93
25944;BME280;13742;49.306;8.636;2023-09-19T01:44:24;100070.84;;;18.26;49.93
25944;BME280;13742;49.306;8.636;2023-09-19T01:45:33;100071.90;;;18.25;49.93
25944;BME280;13742;49.306;8.636;2023-09-19T01:46:24;100069.41;;;18.21;49.93
25944;BME280;13742;49.306;8.636;2023-09-19T01:49:27;100073.55;;;18.24;49.93
25944;BME280;13742;49.306;8.636;2023-09-19T01:50:29;100074.43;;;18.25;49.93
25944;BME280;13742;49.306;8.636;2023-09-19T01:51:34;100076.88;;;18.18;49.93
25944;BME280;13742;49.306;8.636;2023-09-19T01:52:22;100083.26;;;18.18;49.93
25944;BME280;13742;49.306;8.636;2023-09-19T01:53:23;100087.88;;;18.19;49.93
25944;BME280;13742;49.306;8.636;2023-09-19T01:54:27;100085.78;;;18.17;49.93
25944;BME280;13742;49.306;8.636;2023-09-19T01:55:22;100082.81;;;18.14;49.93
25944;BME280;13742;49.306;8.636;2023-09-19T01:56:25;100085.69;;;18.16;49.93
25944;BME280;13742;49.306;8.636;2023-09-19T01:58:27;100087.53;;;18.11;49.93
25944;BME280;13742;49.306;8.636;2023-09-19T01:59:24;100090.41;;;18.12;49.93
25944;BME280;13742;49.306;8.636;2023-09-19T02:00:22;100092.44;;;18.14;49.93
25944;BME280;13742;49.306;8.636;2023-09-19T02:01:22;100092.78;;;18.14;49.93
25944;BME280;13742;49.306;8.636;2023-09-19T02:02:22;100090.64;;;18.15;49.93
25944;BME280;13742;49.306;8.636;2023-09-19T02:03:22;100092.30;;;18.17;49.93
25944;BME280;13742;49.306;8.636;2023-09-19T02:04:22;100093.58;;;18.17;49.93
25944;BME280;13742;49.306;8.636;2023-09-19T02:05:23;100098.70;;;18.18;49.93
25944;BME280;13742;49.306;8.636;2023-09-19T02:06:22;100096.59;;;18.12;49.93
25944;BME280;13742;49.306;8.636;2023-09-19T02:07:22;100098.59;;;18.12;49.93
25944;BME280;13742;49.306;8.636;2023-09-19T02:08:23;100096.20;;;18.12;49.93
25944;BME280;13742;49.306;8.636;2023-09-19T02:09:22;100102.09;;;18.13;49.93
25944;BME280;13742;49.306;8.636;2023-09-19T02:10:22;100096.16;;;18.11;49.93
25944;BME280;13742;49.306;8.636;2023-09-19T02:11:22;100102.07;;;18.11;49.93
25944;BME280;13742;49.306;8.636;2023-09-19T02:12:22;100100.55;;;18.12;49.93
25944;BME280;13742;49.306;8.636;2023-09-19T02:13:22;100103.53;;;18.14;49.93
25944;BME280;13742;49.306;8.636;2023-09-19T02:14:22;100100.33;;;18.17;49.93
25944;BME280;13742;49.306;8.636;2023-09-19T02:15:22;100103.56;;;18.16;49.93
25944;BME280;13742;49.306;8.636;2023-09-19T02:16:22;100104.34;;;18.11;49.93
25944;BME280;13742;49.306;8.636;2023-09-19T02:17:23;100107.30;;;18.12;49.93
25944;BME280;13742;49.306;8.636;2023-09-19T02:18:22;100104.33;;;18.13;49.93
25944;BME280;13742;49.306;8.636;2023-09-19T02:19:22;100105.22;;;18.12;49.93
25944;BME280;13742;49.306;8.636;2023-09-19T02:20:22;100107.48;;;18.10;49.93
25944;BME280;13742;49.306;8.636;2023-09-19T02:21:22;100111.59;;;18.11;49.93
25944;BME280;13742;49.306;8.636;2023-09-19T02:22:24;100109.41;;;18.11;49.93
25944;BME280;13742;49.306;8.636;2023-09-19T02:23:22;100110.31;;;18.10;49.93
25944;BME280;13742;49.306;8.636;2023-09-19T02:24:26;100109.04;;;18.10;49.93
25944;BME280;13742;49.306;8.636;2023-09-19T02:25:22;100112.02;;;18.13;49.93
25944;BME280;13742;49.306;8.636;2023-09-19T02:26:24;100113.21;;;18.15;49.93
25944;BME280;13742;49.306;8.636;2023-09-19T02:27:22;100118.31;;;18.17;49.93
25944;BME280;13742;49.306;8.636;2023-09-19T02:28:22;100111.26;;;18.17;49.93
25944;BME280;13742;49.306;8.636;2023-09-19T02:29:22;100115.84;;;18.18;49.93
25944;BME280;13742;49.306;8.636;2023-09-19T02:30:23;100109.94;;;18.15;49.93
25944;BME280;13742;49.306;8.636;2023-09-19T02:31:22;100108.89;;;18.18;49.93
25944;BME280;13742;49.306;8.636;2023-09-19T02:32:23;100111.05;;;18.19;49.93
25944;BME280;13742;49.306;8.636;2023-09-19T02:33:22;100114.20;;;18.21;49.93
25944;BME280;13742;49.306;8.636;2023-09-19T02:34:22;100116.85;;;18.18;49.93
25944;BME280;13742;49.306;8.636;2023-09-19T02:35:22;100115.98;;;18.21;49.93
25944;BME280;13742;49.306;8.636;2023-09-19T02:36:23;100120.55;;;18.23;49.93
25944;BME280;13742;49.306;8.636;2023-09-19T02:37:22;100120.70;;;18.22;49.93
25944;BME280;13742;49.306;8.636;2023-09-19T02:38:25;100121.82;;;18.23;49.93
25944;BME280;13742;49.306;8.636;2023-09-19T02:39:22;100124.34;;;18.21;49.93
25944;BME280;13742;49.306;8.636;2023-09-19T02:40:22;100121.14;;;18.19;49.93
25944;BME280;13742;49.306;8.636;2023-09-19T02:41:22;100128.83;;;18.13;49.93
25944;BME280;13742;49.306;8.636;2023-09-19T02:42:22;100127.78;;;18.12;49.93
25944;BME280;13742;49.306;8.636;2023-09-19T02:43:22;100131.50;;;18.13;49.93
25944;BME280;13742;49.306;8.636;2023-09-19T02:44:22;100130.89;;;18.13;49.93
25944;BME280;13742;49.306;8.636;2023-09-19T02:45:23;100131.46;;;18.12;49.93
25944;BME280;13742;49.306;8.636;2023-09-19T02:46:22;100129.81;;;18.15;49.93
25944;BME280;13742;49.306;8.636;2023-09-19T02:47:22;100130.30;;;18.17;49.93
25944;BME280;13742;49.306;8.636;2023-09-19T02:48:22;100129.02;;;18.16;49.93
25944;BME280;13742;49.306;8.636;2023-09-19T02:49:22;100126.52;;;18.16;49.93
25944;BME280;13742;49.306;8.636;2023-09-19T02:50:22;100130.61;;;18.14;49.93
25944;BME280;13742;49.306;8.636;2023-09-19T02:51:22;100132.98;;;18.17;49.93
25944;BME280;13742;49.306;8.636;2023-09-19T02:52:22;100134.23;;;18.18;49.93
25944;BME280;13742;49.306;8.636;2023-09-19T02:53:22;100132.98;;;18.20;49.93
25944;BME280;13742;49.306;8.636;2023-09-19T02:54:23;100134.98;;;18.22;49.93
25944;BME280;13742;49.306;8.636;2023-09-19T02:55:22;100131.92;;;18.21;49.93
25944;BME280;13742;49.306;8.636;2023-09-19T02:56:22;100133.47;;;18.22;49.93
25944;BME280;13742;49.306;8.636;2023-09-19T02:57:24;100136.14;;;18.22;49.93
25944;BME280;13742;49.306;8.636;2023-09-19T02:58:23;100135.27;;;18.21;49.93
25944;BME280;13742;49.306;8.636;2023-09-19T02:59:22;100135.02;;;18.23;49.93
25944;BME280;13742;49.306;8.636;2023-09-19T03:00:22;100135.08;;;18.22;49.93
25944;BME280;13742;49.306;8.636;2023-09-19T03:01:22;100136.61;;;18.21;49.93
25944;BME280;13742;49.306;8.636;2023-09-19T03:02:24;100133.06;;;18.18;49.93
25944;BME280;13742;49.306;8.636;2023-09-19T03:03:22;100134.36;;;18.18;49.93
25944;BME280;13742;49.306;8.636;2023-09-19T03:04:22;100134.83;;;18.20;49.93
25944;BME280;13742;49.306;8.636;2023-09-19T03:05:23;100137.88;;;18.21;49.93
25944;BME280;13742;49.306;8.636;2023-09-19T03:06:22;100136.98;;;18.22;49.93
25944;BME280;13742;49.306;8.636;2023-09-19T03:07:22;100136.00;;;18.20;49.93
25944;BME280;13742;49.306;8.636;2023-09-19T03:08:22;100137.67;;;18.21;49.93
25944;BME280;13742;49.306;8.636;2023-09-19T03:09:23;100131.26;;;18.21;49.93
25944;BME280;13742;49.306;8.636;2023-09-19T03:10:22;100135.77;;;18.21;49.93
25944;BME280;13742;49.306;8.636;2023-09-19T03:11:23;100137.94;;;18.21;49.93
25944;BME280;13742;49.306;8.636;2023-09-19T03:12:22;100134.09;;;18.21;49.93
25944;BME280;13742;49.306;8.636;2023-09-19T03:13:22;100133.28;;;18.20;49.93
25944;BME280;13742;49.306;8.636;2023-09-19T03:14:23;100139.47;;;18.20;49.93
25944;BME280;13742;49.306;8.636;2023-09-19T03:15:22;100136.47;;;18.18;49.93
25944;BME280;13742;49.306;8.636;2023-09-19T03:16:22;100145.48;;;18.20;49.93
25944;BME280;13742;49.306;8.636;2023-09-19T03:17:22;100144.27;;;18.19;49.93
25944;BME280;13742;49.306;8.636;2023-09-19T03:18:23;100151.86;;;18.16;49.93
25944;BME280;13742;49.306;8.636;2023-09-19T03:19:23;100148.58;;;18.12;49.93
25944;BME280;13742;49.306;8.636;2023-09-19T03:20:22;100147.61;;;18.13;49.93
25944;BME280;13742;49.306;8.636;2023-09-19T03:21:22;100151.34;;;18.12;49.93
25944;BME280;13742;49.306;8.636;2023-09-19T03:22:22;100148.59;;;18.10;49.93
25944;BME280;13742;49.306;8.636;2023-09-19T03:23:22;100152.20;;;18.11;49.93
25944;BME280;13742;49.306;8.636;2023-09-19T03:24:22;100150.11;;;18.09;49.93
25944;BME280;13742;49.306;8.636;2023-09-19T03:25:23;100148.98;;;18.10;49.93
25944;BME280;13742;49.306;8.636;2023-09-19T03:26:22;100151.88;;;18.09;49.93
25944;BME280;13742;49.306;8.636;2023-09-19T03:27:22;100151.70;;;18.09;49.93
25944;BME280;13742;49.306;8.636;2023-09-19T03:28:22;100155.59;;;18.10;49.93
25944;BME280;13742;49.306;8.636;2023-09-19T03:29:22;100160.43;;;18.12;49.93
25944;BME280;13742;49.306;8.636;2023-09-19T03:30:22;100161.69;;;18.14;49.93
25944;BME280;13742;49.306;8.636;2023-09-19T03:31:22;100165.69;;;18.15;49.93
25944;BME280;13742;49.306;8.636;2023-09-19T03:32:22;100161.28;;;18.16;49.93
25944;BME280;13742;49.306;8.636;2023-09-19T03:33:22;100161.83;;;18.17;49.93
25944;BME280;13742;49.306;8.636;2023-09-19T03:34:22;100157.22;;;18.17;49.93
25944;BME280;13742;49.306;8.636;2023-09-19T03:35:22;100162.09;;;18.19;49.93
25944;BME280;13742;49.306;8.636;2023-09-19T03:36:21;100162.25;;;18.19;49.93
25944;BME280;13742;49.306;8.636;2023-09-19T03:37:22;100164.35;;;18.21;49.93
25944;BME280;13742;49.306;8.636;2023-09-19T03:38:22;100164.73;;;18.22;49.93
25944;BME280;13742;49.306;8.636;2023-09-19T03:39:22;100170.45;;;18.23;49.93
25944;BME280;13742;49.306;8.636;2023-09-19T03:40:23;100171.19;;;18.22;49.93
25944;BME280;13742;49.306;8.636;2023-09-19T03:41:21;100170.12;;;18.23;49.93
25944;BME280;13742;49.306;8.636;2023-09-19T03:42:25;100171.77;;;18.24;49.93
25944;BME280;13742;49.306;8.636;2023-09-19T03:43:22;100175.11;;;18.24;49.93
25944;BME280;13742;49.306;8.636;2023-09-19T03:44:22;100173.02;;;18.19;49.93
25944;BME280;13742;49.306;8.636;2023-09-19T03:45:22;100171.66;;;18.20;49.93
25944;BME280;13742;49.306;8.636;2023-09-19T03:46:22;100171.76;;;18.17;49.93
25944;BME280;13742;49.306;8.636;2023-09-19T03:47:22;100169.25;;;18.17;49.93
25944;BME280;13742;49.306;8.636;2023-09-19T03:48:22;100170.41;;;18.16;49.93
25944;BME280;13742;49.306;8.636;2023-09-19T03:49:22;100168.80;;;18.16;49.93
25944;BME280;13742;49.306;8.636;2023-09-19T03:50:21;100171.73;;;18.14;49.93
25944;BME280;13742;49.306;8.636;2023-09-19T03:51:22;100173.52;;;18.13;49.93
25944;BME280;13742;49.306;8.636;2023-09-19T03:52:21;100174.81;;;18.16;49.93
25944;BME280;13742;49.306;8.636;2023-09-19T03:53:22;100172.09;;;18.17;49.93
25944;BME280;13742;49.306;8.636;2023-09-19T03:54:21;100171.30;;;18.17;49.93
25944;BME280;13742;49.306;8.636;2023-09-19T03:55:21;100171.41;;;18.18;49.93
25944;BME280;13742;49.306;8.636;2023-09-19T03:56:22;100173.17;;;18.18;49.93
25944;BME280;13742;49.306;8.636;2023-09-19T03:57:22;100175.71;;;18.21;49.93
25944;BME280;13742;49.306;8.636;2023-09-19T03:58:22;100179.45;;;18.21;49.93
25944;BME280;13742;49.306;8.636;2023-09-19T03:59:22;100182.66;;;18.23;49.93
25944;BME280;13742;49.306;8.636;2023-09-19T04:00:23;100179.17;;;18.22;49.93
25944;BME280;13742;49.306;8.636;2023-09-19T04:01:22;100181.45;;;18.22;49.93
25944;BME280;13742;49.306;8.636;2023-09-19T04:02:22;100180.27;;;18.22;49.93
25944;BME280;13742;49.306;8.636;2023-09-19T04:03:22;100178.15;;;18.23;49.93
25944;BME280;13742;49.306;8.636;2023-09-19T04:04:23;100175.58;;;18.23;49.93
25944;BME280;13742;49.306;8.636;2023-09-19T04:05:22;100176.39;;;18.24;49.93
25944;BME280;13742;49.306;8.636;2023-09-19T04:06:21;100180.42;;;18.26;49.93
25944;BME280;13742;49.306;8.636;2023-09-19T04:07:22;100180.83;;;18.27;49.93
25944;BME280;13742;49.306;8.636;2023-09-19T04:08:21;100180.99;;;18.27;49.93
25944;BME280;13742;49.306;8.636;2023-09-19T04:09:22;100179.26;;;18.27;49.93
25944;BME280;13742;49.306;8.636;2023-09-19T04:10:21;100182.93;;;18.26;49.93
25944;BME280;13742;49.306;8.636;2023-09-19T04:11:22;100179.88;;;18.25;49.93
25944;BME280;13742;49.306;8.636;2023-09-19T04:12:22;100183.80;;;18.24;49.93
25944;BME280;13742;49.306;8.636;2023-09-19T04:13:21;100184.03;;;18.24;49.93
25944;BME280;13742;49.306;8.636;2023-09-19T04:14:21;100184.56;;;18.23;49.93
25944;BME280;13742;49.306;8.636;2023-09-19T04:15:23;100181.53;;;18.24;49.93
25944;BME280;13742;49.306;8.636;2023-09-19T04:16:21;100183.84;;;18.24;49.93
25944;BME280;13742;49.306;8.636;2023-09-19T04:17:23;100185.84;;;18.23;49.93
25944;BME280;13742;49.306;8.636;2023-09-19T04:18:23;100189.11;;;18.23;49.93
25944;BME280;13742;49.306;8.636;2023-09-19T04:19:21;100191.91;;;18.22;49.93
25944;BME280;13742;49.306;8.636;2023-09-19T04:20:25;100191.38;;;18.22;49.93
25944;BME280;13742;49.306;8.636;2023-09-19T04:21:22;100190.57;;;18.22;49.93
25944;BME280;13742;49.306;8.636;2023-09-19T04:22:21;100194.21;;;18.22;49.93
25944;BME280;13742;49.306;8.636;2023-09-19T04:23:21;100196.91;;;18.24;49.93
25944;BME280;13742;49.306;8.636;2023-09-19T04:24:22;100196.57;;;18.24;49.93
25944;BME280;13742;49.306;8.636;2023-09-19T04:25:22;100199.45;;;18.24;49.93
25944;BME280;13742;49.306;8.636;2023-09-19T04:26:22;100195.94;;;18.24;49.93
25944;BME280;13742;49.306;8.636;2023-09-19T04:27:22;100195.88;;;18.24;49.93
25944;BME280;13742;49.306;8.636;2023-09-19T04:28:22;100200.00;;;18.25;49.93
25944;BME280;13742;49.306;8.636;2023-09-19T04:29:21;100201.94;;;18.25;49.93
25944;BME280;13742;49.306;8.636;2023-09-19T04:30:21;100200.44;;;18.25;49.93
25944;BME280;13742;49.306;8.636;2023-09-19T04:31:22;100201.34;;;18.26;49.93
25944;BME280;13742;49.306;8.636;2023-09-19T04:32:21;100203.16;;;18.26;49.93
25944;BME280;13742;49.306;8.636;2023-09-19T04:33:21;100200.84;;;18.25;49.93
25944;BME280;13742;49.306;8.636;2023-09-19T04:34:22;100199.94;;;18.25;49.93
25944;BME280;13742;49.306;8.636;2023-09-19T04:35:21;100201.27;;;18.25;49.93
25944;BME280;13742;49.306;8.636;2023-09-19T04:36:22;100201.56;;;18.24;49.93
25944;BME280;13742;49.306;8.636;2023-09-19T04:37:21;100204.26;;;18.24;49.93
25944;BME280;13742;49.306;8.636;2023-09-19T04:38:21;100206.62;;;18.22;49.93
25944;BME280;13742;49.306;8.636;2023-09-19T04:39:26;100209.25;;;18.22;49.93
25944;BME280;13742;49.306;8.636;2023-09-19T04:40:23;100209.64;;;18.21;49.93
25944;BME280;13742;49.306;8.636;2023-09-19T04:41:22;100214.72;;;18.21;49.93
25944;BME280;13742;49.306;8.636;2023-09-19T04:42:25;100216.28;;;18.20;49.93
25944;BME280;13742;49.306;8.636;2023-09-19T04:43:21;100219.13;;;18.20;49.93
25944;BME280;13742;49.306;8.636;2023-09-19T04:44:22;100226.16;;;18.19;49.93
25944;BME280;13742;49.306;8.636;2023-09-19T04:45:22;100219.93;;;18.17;49.93
25944;BME280;13742;49.306;8.636;2023-09-19T04:46:22;100219.31;;;18.17;49.93
25944;BME280;13742;49.306;8.636;2023-09-19T04:47:22;100219.72;;;18.17;49.93
25944;BME280;13742;49.306;8.636;2023-09-19T04:48:22;100219.31;;;18.17;49.93
25944;BME280;13742;49.306;8.636;2023-09-19T04:49:21;100223.89;;;18.16;49.93
25944;BME280;13742;49.306;8.636;2023-09-19T04:50:22;100221.78;;;18.16;49.93
25944;BME280;13742;49.306;8.636;2023-09-19T04:51:21;100222.91;;;18.15;49.93
25944;BME280;13742;49.306;8.636;2023-09-19T04:52:22;100223.32;;;18.13;49.93
25944;BME280;13742;49.306;8.636;2023-09-19T04:53:21;100225.55;;;18.12;49.93
25944;BME280;13742;49.306;8.636;2023-09-19T04:54:22;100225.27;;;18.12;49.93
25944;BME280;13742;49.306;8.636;2023-09-19T04:55:21;100222.98;;;18.11;49.93
25944;BME280;13742;49.306;8.636;2023-09-19T04:56:23;100226.58;;;18.09;49.93
25944;BME280;13742;49.306;8.636;2023-09-19T04:57:21;100224.81;;;18.07;49.93
25944;BME280;13742;49.306;8.636;2023-09-19T04:58:22;100231.83;;;18.07;49.93
25944;BME280;13742;49.306;8.636;2023-09-19T04:59:23;100230.57;;;18.05;49.93
25944;BME280;13742;49.306;8.636;2023-09-19T05:00:24;100232.41;;;18.05;49.93
25944;BME280;13742;49.306;8.636;2023-09-19T05:01:22;100229.05;;;18.01;49.93
25944;BME280;13742;49.306;8.636;2023-09-19T05:02:22;100229.48;;;18.02;49.93
25944;BME280;13742;49.306;8.636;2023-09-19T05:03:22;100231.15;;;18.01;49.93
25944;BME280;13742;49.306;8.636;2023-09-19T05:04:21;100232.28;;;18.01;49.93
25944;BME280;13742;49.306;8.636;2023-09-19T05:05:22;100227.27;;;18.00;49.93
25944;BME280;13742;49.306;8.636;2023-09-19T05:06:21;100229.49;;;18.00;49.93
25944;BME280;13742;49.306;8.636;2023-09-19T05:07:26;100225.77;;;17.99;49.93
25944;BME280;13742;49.306;8.636;2023-09-19T05:08:22;100226.78;;;17.97;49.93
25944;BME280;13742;49.306;8.636;2023-09-19T05:09:21;100227.02;;;17.97;49.93
25944;BME280;13742;49.306;8.636;2023-09-19T05:10:22;100229.80;;;17.96;49.93
25944;BME280;13742;49.306;8.636;2023-09-19T05:11:22;100230.27;;;17.95;49.93
25944;BME280;13742;49.306;8.636;2023-09-19T05:12:21;100233.00;;;17.94;49.93
25944;BME280;13742;49.306;8.636;2023-09-19T05:13:23;100232.33;;;17.94;49.93
25944;BME280;13742;49.306;8.636;2023-09-19T05:14:22;100232.23;;;17.92;49.93
25944;BME280;13742;49.306;8.636;2023-09-19T05:15:21;100234.59;;;17.91;49.93
25944;BME280;13742;49.306;8.636;2023-09-19T05:16:22;100235.78;;;17.88;49.93
25944;BME280;13742;49.306;8.636;2023-09-19T05:17:21;100241.56;;;17.88;49.93
25944;BME280;13742;49.306;8.636;2023-09-19T05:18:22;100241.66;;;17.83;49.93
25944;BME280;13742;49.306;8.636;2023-09-19T05:19:21;100240.97;;;17.84;49.93
25944;BME280;13742;49.306;8.636;2023-09-19T05:20:29;100246.27;;;17.84;49.93
25944;BME280;13742;49.306;8.636;2023-09-19T05:21:22;100245.18;;;17.82;49.93
25944;BME280;13742;49.306;8.636;2023-09-19T05:22:21;100249.20;;;17.80;49.93
25944;BME280;13742;49.306;8.636;2023-09-19T05:23:21;100252.42;;;17.79;49.93
25944;BME280;13742;49.306;8.636;2023-09-19T05:24:23;100254.27;;;17.80;49.93
25944;BME280;13742;49.306;8.636;2023-09-19T05:25:22;100253.55;;;17.80;49.93
25944;BME280;13742;49.306;8.636;2023-09-19T05:26:21;100255.83;;;17.79;49.93